Time;durP1;ratioP1;P1;durP2;ratioP2;P2;SDS_P1;SDS_P2;PMS_P1;PMS_P2;Temp;Humidity;BMP_temperature;BMP_pressure;BME280_temperature;BME280_humidity;BME280_pressure;Samples;Min_cycle;Max_cycle;Signal;HPM_P1;HPM_P2
2021/05/20 00:02:43;;;;;;;5.15;1.60;;;;;;;13.08;90.26;99142.27;1747226;82;21828;-83
2021/05/20 00:05:49;;;;;;;5.58;1.80;;;;;;;13.03;90.13;99140.19;1747328;82;21163;-83
2021/05/20 00:08:54;;;;;;;6.03;2.20;;;;;;;12.97;90.10;99145.17;1746969;82;21221;-83
2021/05/20 00:12:00;;;;;;;3.65;2.47;;;;;;;12.96;90.22;99144.02;1747371;82;21173;-83
2021/05/20 00:15:06;;;;;;;4.12;2.20;;;;;;;12.93;90.13;99146.66;1745673;82;21242;-83
2021/05/20 00:18:13;;;;;;;6.83;2.30;;;;;;;12.94;89.85;99155.23;1746690;82;21308;-83
2021/05/20 00:21:19;;;;;;;2.00;1.57;;;;;;;12.92;89.71;99161.45;1747143;82;21284;-83
2021/05/20 00:24:25;;;;;;;2.00;1.30;;;;;;;12.92;89.71;99163.36;1747007;82;21307;-83
2021/05/20 00:27:31;;;;;;;4.10;1.20;;;;;;;12.94;89.63;99171.70;1726432;83;22621;-83
2021/05/20 00:30:37;;;;;;;1.82;1.17;;;;;;;12.95;89.41;99172.01;1704231;83;21321;-83
2021/05/20 00:33:43;;;;;;;5.28;1.10;;;;;;;12.93;89.25;99178.77;1725758;83;21318;-83
2021/05/20 00:36:48;;;;;;;5.80;1.10;;;;;;;12.90;89.02;99176.48;1726502;83;21160;-83
2021/05/20 00:39:55;;;;;;;1.10;0.80;;;;;;;12.79;88.83;99180.19;1726228;83;21277;-83
2021/05/20 00:43:01;;;;;;;7.00;0.93;;;;;;;12.72;89.03;99184.05;1726397;83;21311;-83
2021/05/20 00:46:06;;;;;;;5.33;1.10;;;;;;;12.66;89.25;99186.30;1726289;83;21865;-83
2021/05/20 00:49:11;;;;;;;1.25;0.75;;;;;;;12.58;89.50;99192.02;1725227;83;21822;-83
2021/05/20 00:52:17;;;;;;;1.55;0.98;;;;;;;12.53;89.83;99182.53;1726258;83;21208;-83
2021/05/20 00:55:30;;;;;;;3.27;1.20;;;;;;;12.48;90.09;99195.22;1726415;83;21706;-83
2021/05/20 00:58:32;;;;;;;3.55;1.20;;;;;;;12.46;90.30;99187.18;1725610;83;21330;-83
2021/05/20 01:01:37;;;;;;;2.17;1.12;;;;;;;12.42;90.37;99188.70;1726345;83;21148;-83
2021/05/20 01:04:42;;;;;;;2.55;1.07;;;;;;;12.41;90.55;99199.86;1725967;83;21323;-83
2021/05/20 01:07:47;;;;;;;7.55;1.37;;;;;;;12.38;90.66;99192.92;1726489;83;21347;-83
2021/05/20 01:10:54;;;;;;;6.92;1.25;;;;;;;12.32;90.68;99193.76;1726372;83;21351;-83
2021/05/20 01:14:00;;;;;;;2.90;1.22;;;;;;;12.21;90.68;99195.27;1726251;83;21310;-83
2021/05/20 01:17:07;;;;;;;2.98;1.52;;;;;;;12.10;90.73;99197.30;1724599;83;21179;-83
2021/05/20 01:20:15;;;;;;;3.80;1.70;;;;;;;11.96;91.03;99213.45;1726267;83;21192;-83
2021/05/20 01:23:23;;;;;;;3.20;1.50;;;;;;;11.85;91.58;99209.42;1726418;83;22238;-83
2021/05/20 01:26:29;;;;;;;2.47;1.60;;;;;;;11.80;92.04;99209.19;1725856;82;21320;-83
2021/05/20 01:29:36;;;;;;;2.25;1.57;;;;;;;11.75;92.30;99207.61;1720689;83;21319;-83
2021/05/20 01:32:41;;;;;;;6.55;1.90;;;;;;;11.70;92.58;99206.03;1720228;83;21303;-83
2021/05/20 01:35:47;;;;;;;3.05;1.77;;;;;;;11.65;92.64;99207.19;1720813;83;21281;-83
2021/05/20 01:38:52;;;;;;;2.92;1.95;;;;;;;11.57;92.66;99210.13;1720292;83;21308;-83
2021/05/20 01:41:59;;;;;;;4.67;1.80;;;;;;;11.50;92.84;99197.81;1720724;83;21297;-83
2021/05/20 01:45:03;;;;;;;4.12;2.33;;;;;;;11.45;93.00;99206.65;1720678;83;21688;-83
2021/05/20 01:48:10;;;;;;;7.72;2.10;;;;;;;11.40;93.19;99203.70;1720556;83;21282;-83
2021/05/20 01:51:23;;;;;;;7.85;2.22;;;;;;;11.35;93.36;99208.12;1720658;83;21662;-83
2021/05/20 01:54:29;;;;;;;3.58;1.70;;;;;;;11.30;93.51;99207.38;1719122;83;21193;-83
2021/05/20 01:57:36;;;;;;;2.95;1.60;;;;;;;11.23;93.63;99213.34;1720670;83;21177;-83
2021/05/20 02:00:40;;;;;;;4.22;1.87;;;;;;;11.17;93.82;99212.81;1720625;83;21827;-83
2021/05/20 02:03:47;;;;;;;5.60;1.70;;;;;;;11.10;94.06;99212.78;1704205;83;21320;-83
2021/05/20 02:06:53;;;;;;;3.77;1.50;;;;;;;11.05;94.21;99208.98;1720778;83;21233;-83
2021/05/20 02:09:58;;;;;;;2.92;1.30;;;;;;;11.02;94.43;99212.15;1720404;83;21284;-83
2021/05/20 02:13:05;;;;;;;3.85;1.37;;;;;;;10.96;94.63;99214.66;1704740;83;21845;-83
2021/05/20 02:16:12;;;;;;;6.05;1.30;;;;;;;10.91;94.90;99214.40;1720456;83;21343;-83
2021/05/20 02:19:17;;;;;;;7.35;1.25;;;;;;;10.91;95.25;99207.56;1720441;83;21643;-83
2021/05/20 02:22:24;;;;;;;3.52;1.55;;;;;;;10.94;95.45;99211.80;1720232;83;21273;-83
2021/05/20 02:25:30;;;;;;;2.37;1.15;;;;;;;11.16;95.86;99213.87;1720453;83;21158;-83
2021/05/20 02:28:36;;;;;;;5.15;1.70;;;;;;;11.44;95.69;99206.34;1720414;82;21304;-83
2021/05/20 02:31:42;;;;;;;1.42;1.20;;;;;;;11.86;95.11;99211.67;1720206;83;21170;-83
2021/05/20 02:34:46;;;;;;;4.15;1.65;;;;;;;12.33;93.68;99203.70;1720058;83;21313;-83
2021/05/20 02:37:55;;;;;;;4.00;1.60;;;;;;;12.77;91.36;99206.19;1720400;83;21315;-84
2021/05/20 02:41:00;;;;;;;2.27;1.55;;;;;;;13.21;88.82;99218.20;1720529;83;21853;-84
2021/05/20 02:44:07;;;;;;;2.77;1.65;;;;;;;13.60;85.90;99223.16;1720348;83;21225;-84
2021/05/20 02:47:13;;;;;;;2.08;1.45;;;;;;;13.96;83.77;99230.17;1720015;83;21285;-84
2021/05/20 02:50:19;;;;;;;2.25;1.20;;;;;;;14.31;81.48;99229.66;1720296;83;21299;-82
2021/05/20 02:53:27;;;;;;;3.25;1.20;;;;;;;14.56;79.79;99237.36;1720213;83;21316;-82
2021/05/20 02:56:31;;;;;;;1.70;1.27;;;;;;;14.83;78.52;99232.94;1720329;83;21284;-82
2021/05/20 02:59:37;;;;;;;3.60;1.95;;;;;;;14.92;77.13;99235.69;1720622;83;21198;-82
2021/05/20 03:02:42;;;;;;;6.72;2.20;;;;;;;14.89;76.24;99236.13;1720760;83;21831;-82
2021/05/20 03:05:46;;;;;;;9.08;2.58;;;;;;;14.83;75.82;99234.31;1720332;83;21292;-84
2021/05/20 03:08:53;;;;;;;7.05;2.50;;;;;;;14.77;75.51;99232.45;1719213;83;21248;-84
2021/05/20 03:12:00;;;;;;;5.83;2.08;;;;;;;14.83;75.60;99232.94;1720596;83;21783;-84
2021/05/20 03:15:06;;;;;;;10.25;3.05;;;;;;;15.02;75.18;99233.22;1718462;83;21799;-84
2021/05/20 03:18:15;;;;;;;4.67;2.15;;;;;;;15.28;74.59;99236.69;1714003;83;21284;-84
2021/05/20 03:21:26;;;;;;;3.15;1.72;;;;;;;15.50;73.74;99233.73;1715924;83;21162;-83
2021/05/20 03:24:31;;;;;;;2.05;1.60;;;;;;;15.75;73.14;99231.36;1708525;83;21187;-82
2021/05/20 03:27:36;;;;;;;6.90;2.12;;;;;;;15.96;71.81;99247.91;1696718;83;21287;-82
2021/05/20 03:30:41;;;;;;;7.30;2.20;;;;;;;16.07;71.05;99249.84;1708638;83;21261;-82
2021/05/20 03:33:47;;;;;;;5.67;1.80;;;;;;;16.22;70.72;99252.96;1708130;83;21161;-82
2021/05/20 03:36:53;;;;;;;2.80;1.35;;;;;;;16.33;70.03;99256.29;1709957;83;21323;-83
2021/05/20 03:39:58;;;;;;;3.35;1.75;;;;;;;16.42;69.50;99258.16;1709220;83;21260;-82
2021/05/20 03:43:03;;;;;;;4.67;1.42;;;;;;;16.42;69.48;99267.81;1708093;83;21292;-83
2021/05/20 03:46:09;;;;;;;6.95;1.60;;;;;;;16.51;68.70;99269.11;1712325;83;21189;-83
2021/05/20 03:49:16;;;;;;;4.62;1.98;;;;;;;16.46;68.80;99271.75;1708079;83;21826;-83
2021/05/20 03:52:20;;;;;;;2.72;1.70;;;;;;;16.44;68.98;99275.30;1714631;83;21134;-83
2021/05/20 03:55:27;;;;;;;5.60;1.70;;;;;;;16.47;68.50;99270.69;1704360;83;21304;-82
2021/05/20 03:58:37;;;;;;;6.45;1.85;;;;;;;16.39;68.68;99273.80;1704782;83;21271;-82
2021/05/20 04:01:43;;;;;;;7.00;1.57;;;;;;;16.24;68.93;99286.69;1716762;83;21178;-82
2021/05/20 04:04:49;;;;;;;3.10;1.62;;;;;;;16.06;69.38;99287.61;1715629;83;21299;-82
2021/05/20 04:07:54;;;;;;;3.58;1.80;;;;;;;16.00;69.84;99291.33;1704135;83;21257;-82
2021/05/20 04:11:00;;;;;;;7.45;1.45;;;;;;;15.96;70.14;99301.15;1707500;83;21201;-82
2021/05/20 04:14:06;;;;;;;4.87;2.08;;;;;;;15.98;70.35;99303.12;1706950;83;21240;-82
2021/05/20 04:17:12;;;;;;;5.10;1.98;;;;;;;15.93;70.23;99308.50;1708155;83;21157;-82
2021/05/20 04:20:19;;;;;;;6.40;2.15;;;;;;;15.79;70.66;99303.72;1712798;83;21221;-82
2021/05/20 04:23:25;;;;;;;8.90;2.20;;;;;;;15.71;70.67;99305.96;1699738;83;21249;-82
2021/05/20 04:26:34;;;;;;;5.03;2.20;;;;;;;15.73;71.41;99313.48;1699868;83;21269;-82
2021/05/20 04:29:40;;;;;;;8.70;2.70;;;;;;;15.72;71.50;99305.75;1709780;83;21739;-83
2021/05/20 04:32:47;;;;;;;5.83;2.77;;;;;;;15.66;71.41;99293.42;1707497;83;21320;-83
2021/05/20 04:35:53;;;;;;;5.22;2.08;;;;;;;15.68;71.85;99299.56;1748891;81;21688;-83
2021/05/20 04:38:59;;;;;;;3.87;1.92;;;;;;;15.87;72.24;99299.80;1750716;79;21295;-84
2021/05/20 04:42:03;;;;;;;5.45;1.70;;;;;;;16.09;72.03;99308.35;1750122;81;21272;-83
2021/05/20 04:45:10;;;;;;;3.42;1.77;;;;;;;16.23;71.36;99313.12;1739304;80;21275;-84
2021/05/20 04:48:16;;;;;;;5.00;1.55;;;;;;;16.32;70.74;99308.94;1746234;81;21303;-84
2021/05/20 04:51:23;;;;;;;5.62;2.05;;;;;;;16.44;70.17;99312.56;1751486;79;21347;-84
2021/05/20 04:54:36;;;;;;;3.17;1.70;;;;;;;16.53;69.70;99323.55;1748675;79;21279;-84
2021/05/20 04:57:43;;;;;;;6.58;1.90;;;;;;;16.61;69.75;99320.44;1742616;81;21185;-85
2021/05/20 05:00:49;;;;;;;5.80;1.57;;;;;;;16.74;68.87;99328.20;1746708;79;21854;-85
2021/05/20 05:03:56;;;;;;;5.20;1.55;;;;;;;16.87;68.46;99334.86;1749024;81;21237;-85
2021/05/20 05:07:03;;;;;;;5.15;1.95;;;;;;;16.92;68.33;99323.09;1747716;79;21850;-84
2021/05/20 05:10:11;;;;;;;6.45;2.00;;;;;;;16.94;68.00;99320.41;1750275;79;21300;-85
2021/05/20 05:13:17;;;;;;;2.62;1.40;;;;;;;16.98;68.05;99316.05;1748335;81;21229;-86
2021/05/20 05:16:25;;;;;;;3.22;1.77;;;;;;;17.10;67.93;99322.41;1745949;79;21296;-84
2021/05/20 05:19:39;;;;;;;6.37;1.62;;;;;;;17.33;67.52;99315.16;1743334;79;21309;-85
2021/05/20 05:22:43;;;;;;;3.87;1.60;;;;;;;17.49;66.41;99318.52;1745313;79;21359;-85
2021/05/20 05:25:50;;;;;;;3.65;1.45;;;;;;;17.53;66.23;99329.94;1747582;79;21272;-84
2021/05/20 05:28:57;;;;;;;7.87;1.40;;;;;;;17.60;65.47;99312.12;1745658;79;21904;-85
2021/05/20 05:32:04;;;;;;;3.27;1.57;;;;;;;17.78;64.64;99317.17;1756737;80;21222;-85
2021/05/20 05:35:11;;;;;;;3.95;1.35;;;;;;;17.92;64.50;99314.41;1760501;79;21291;-85
2021/05/20 05:38:17;;;;;;;4.62;1.60;;;;;;;18.08;64.60;99314.99;1755640;79;21176;-85
2021/05/20 05:41:24;;;;;;;5.03;1.55;;;;;;;18.12;63.79;99324.48;1755527;79;21173;-85
2021/05/20 05:44:30;;;;;;;3.37;1.45;;;;;;;18.06;63.85;99328.77;1756777;80;21232;-86
2021/05/20 05:47:36;;;;;;;3.10;1.57;;;;;;;18.15;63.71;99338.34;1760297;79;22141;-84
2021/05/20 05:50:45;;;;;;;4.87;1.70;;;;;;;18.35;63.18;99344.26;1759084;79;21991;-85
2021/05/20 05:53:52;;;;;;;3.22;1.60;;;;;;;18.45;62.04;99342.20;1745621;79;21278;-86
2021/05/20 05:57:00;;;;;;;2.50;1.57;;;;;;;18.38;62.05;99338.75;1758211;79;21184;-86
2021/05/20 06:00:08;;;;;;;5.33;2.03;;;;;;;18.33;61.90;99345.58;1759939;79;21169;-86
2021/05/20 06:03:15;;;;;;;5.83;1.90;;;;;;;18.32;61.27;99341.98;1742336;80;22000;-87
2021/05/20 06:06:26;;;;;;;5.08;1.90;;;;;;;18.39;60.93;99346.80;1756983;79;21726;-84
2021/05/20 06:09:32;;;;;;;6.78;1.92;;;;;;;18.34;61.34;99332.87;1758015;79;21790;-86
2021/05/20 06:12:38;;;;;;;4.10;2.08;;;;;;;18.44;61.28;99341.89;1751459;80;21283;-87
2021/05/20 06:15:43;;;;;;;4.75;2.47;;;;;;;18.61;61.37;99334.43;1759795;79;21916;-87
2021/05/20 06:18:50;;;;;;;6.17;2.33;;;;;;;18.68;61.34;99343.11;1759942;79;21267;-87
2021/05/20 06:22:00;;;;;;;4.58;2.40;;;;;;;18.82;60.70;99338.92;1756665;79;21523;-88
2021/05/20 06:25:08;;;;;;;3.35;1.82;;;;;;;19.01;59.97;99340.90;1760276;79;21299;-88
2021/05/20 06:28:14;;;;;;;7.40;1.90;;;;;;;19.17;60.42;99345.55;1756926;79;21189;-81
2021/05/20 06:31:22;;;;;;;4.00;1.80;;;;;;;19.27;58.28;99351.78;1755198;79;21884;-82
2021/05/20 06:34:33;;;;;;;8.15;2.22;;;;;;;19.32;58.66;99344.92;1754923;79;21192;-83
2021/05/20 06:37:37;;;;;;;5.67;1.70;;;;;;;19.35;59.13;99354.12;1757606;79;21200;-80
2021/05/20 06:40:42;;;;;;;5.20;2.02;;;;;;;19.33;59.12;99363.22;1759566;79;21221;-80
2021/05/20 06:43:50;;;;;;;3.15;1.87;;;;;;;19.34;59.03;99356.61;1758822;79;21665;-90
2021/05/20 06:46:57;;;;;;;5.17;2.33;;;;;;;19.45;59.13;99363.95;1759688;79;21685;-86
2021/05/20 06:50:05;;;;;;;6.58;1.72;;;;;;;19.56;58.44;99365.75;1762398;80;21447;-88
2021/05/20 06:53:18;;;;;;;7.95;2.40;;;;;;;19.55;57.34;99368.79;1733377;80;21180;-87
2021/05/20 06:56:24;;;;;;;5.83;2.12;;;;;;;19.57;58.52;99363.29;1744020;80;21169;-83
2021/05/20 07:02:53;;;;;;;3.37;1.80;;;;;;;19.60;57.69;99369.72;1759754;79;21300;-82
2021/05/20 07:06:02;;;;;;;3.70;1.42;;;;;;;19.69;57.98;99370.66;1759820;79;21303;-81
2021/05/20 07:09:13;;;;;;;3.80;0.75;;;;;;;19.78;57.60;99363.56;1758230;79;21157;-86
2021/05/20 07:12:23;;;;;;;5.95;1.05;;;;;;;19.80;56.96;99364.96;1760837;79;21284;-82
2021/05/20 07:15:30;;;;;;;5.25;1.32;;;;;;;19.85;56.53;99376.12;1760119;80;21286;-81
2021/05/20 07:18:37;;;;;;;3.05;0.90;;;;;;;19.88;56.04;99370.61;1757316;79;21687;-81
2021/05/20 07:21:43;;;;;;;3.90;0.95;;;;;;;19.97;55.63;99376.55;1759653;79;22048;-82
2021/05/20 07:24:53;;;;;;;4.85;0.70;;;;;;;20.02;55.79;99369.66;1758614;79;21190;-82
2021/05/20 07:27:58;;;;;;;2.50;1.00;;;;;;;20.15;55.31;99374.25;1712289;82;21203;-82
2021/05/20 07:31:04;;;;;;;1.25;0.70;;;;;;;20.29;55.44;99378.83;1701837;82;21723;-82
2021/05/20 07:34:13;;;;;;;3.45;1.57;;;;;;;20.41;55.80;99374.48;1670007;82;21201;-81
2021/05/20 07:37:19;;;;;;;4.28;0.90;;;;;;;20.45;54.70;99381.20;1699080;83;21603;-81
2021/05/20 07:40:25;;;;;;;7.28;0.88;;;;;;;20.56;55.31;99386.31;1698977;83;22274;-81
2021/05/20 07:43:30;;;;;;;1.92;1.10;;;;;;;20.65;54.11;99389.77;1709748;82;21224;-80
2021/05/20 07:46:35;;;;;;;3.77;1.17;;;;;;;20.72;52.65;99389.53;1709720;82;21293;-80
2021/05/20 07:49:43;;;;;;;5.53;1.20;;;;;;;20.78;52.74;99385.68;1709880;83;22180;-80
2021/05/20 07:52:51;;;;;;;1.17;0.80;;;;;;;20.91;52.33;99381.06;1706868;82;21202;-80
2021/05/20 07:55:57;;;;;;;1.57;0.78;;;;;;;21.00;50.41;99379.19;1702517;82;21339;-81
2021/05/20 07:59:02;;;;;;;6.22;0.80;;;;;;;21.14;51.35;99372.89;1703199;82;21967;-81
2021/05/20 08:05:25;;;;;;;0.80;0.60;;;;;;;21.08;51.13;99373.97;1700525;83;22257;-82
2021/05/20 08:08:45;;;;;;;3.65;0.95;;;;;;;21.22;50.15;99373.47;1693812;84;21809;-81
2021/05/20 08:11:47;;;;;;;1.82;0.80;;;;;;;21.42;50.18;99370.86;1693134;82;22016;-81
2021/05/20 08:14:54;;;;;;;2.70;0.93;;;;;;;21.55;50.55;99375.94;1694592;82;21177;-77
2021/05/20 08:18:04;;;;;;;4.00;1.10;;;;;;;21.59;49.69;99360.34;1689003;82;21208;-82
2021/05/20 08:21:14;;;;;;;2.47;0.80;;;;;;;21.72;49.81;99366.53;1686241;82;21253;-83
2021/05/20 08:24:25;;;;;;;1.42;0.82;;;;;;;21.87;48.41;99370.76;1688444;82;21537;-81
2021/05/20 08:27:33;;;;;;;2.15;0.68;;;;;;;21.93;48.95;99369.69;1697826;82;21201;-86
2021/05/20 08:30:38;;;;;;;4.17;0.80;;;;;;;22.01;47.75;99376.65;1689588;82;21804;-81
2021/05/20 08:33:44;;;;;;;0.90;0.75;;;;;;;22.05;48.53;99381.95;1695562;83;21568;-81
2021/05/20 08:36:52;;;;;;;2.35;0.80;;;;;;;22.11;47.58;99387.31;1707634;83;21216;-87
2021/05/20 08:39:59;;;;;;;1.55;0.90;;;;;;;22.11;47.08;99388.70;1732165;79;21629;-81
2021/05/20 08:43:05;;;;;;;3.90;0.98;;;;;;;22.13;47.38;99389.81;1692345;82;21229;-81
2021/05/20 08:46:13;;;;;;;2.27;0.80;;;;;;;21.94;46.44;99398.63;1743012;81;21186;-81
2021/05/20 08:49:19;;;;;;;4.72;0.82;;;;;;;21.86;47.37;99408.06;1745477;79;21181;-82
2021/05/20 08:52:26;;;;;;;3.47;1.02;;;;;;;21.86;47.03;99404.72;1740385;79;21216;-81
2021/05/20 08:55:40;;;;;;;3.75;1.02;;;;;;;21.99;47.72;99400.59;1734562;79;21276;-87
2021/05/20 08:58:48;;;;;;;1.10;0.80;;;;;;;22.15;47.12;99400.11;1744249;81;22003;-88
2021/05/20 09:01:59;;;;;;;3.42;0.90;;;;;;;22.23;47.86;99409.89;1744444;79;21386;-89
2021/05/20 09:05:20;;;;;;;2.30;0.90;;;;;;;22.36;47.52;99418.56;1738357;80;21531;-81
2021/05/20 09:08:28;;;;;;;3.57;1.00;;;;;;;22.34;46.69;99418.54;1742371;81;21296;-85
2021/05/20 09:11:32;;;;;;;2.40;1.12;;;;;;;22.24;46.66;99418.52;1754127;80;21352;-85
2021/05/20 09:14:43;;;;;;;7.15;0.90;;;;;;;22.19;47.09;99414.61;1744884;81;21167;-87
2021/05/20 09:17:48;;;;;;;6.10;0.82;;;;;;;22.26;48.62;99424.11;1734476;80;21185;-87
2021/05/20 09:21:06;;;;;;;3.05;1.05;;;;;;;22.44;46.58;99417.16;1744839;79;21221;-83
2021/05/20 09:24:16;;;;;;;5.28;1.00;;;;;;;22.58;46.99;99419.69;1744463;79;21327;-84
2021/05/20 09:27:42;;;;;;;5.85;0.80;;;;;;;22.70;48.21;99421.67;1728978;79;21708;-81
2021/05/20 09:30:52;;;;;;;1.25;0.90;;;;;;;22.73;46.05;99420.84;1744674;79;21205;-82
2021/05/20 09:34:00;;;;;;;6.72;1.05;;;;;;;22.43;45.88;99429.42;1745384;79;21924;-83
2021/05/20 09:37:05;;;;;;;2.95;0.82;;;;;;;22.20;46.79;99421.84;1742415;79;21186;-82
2021/05/20 09:40:11;;;;;;;1.70;0.98;;;;;;;22.09;47.36;99429.03;1744292;81;21168;-83
2021/05/20 09:43:31;;;;;;;3.50;0.95;;;;;;;21.97;48.38;99423.69;1733287;80;21217;-82
2021/05/20 09:46:39;;;;;;;;;;;;;;;21.88;49.35;99427.57;1744440;79;21228;-81
2021/05/20 09:50:06;;;;;;;5.60;1.42;;;;;;;22.02;49.78;99434.87;1743601;79;20272;-83
2021/05/20 09:53:08;;;;;;;5.08;1.10;;;;;;;22.14;48.33;99436.04;1702377;79;21192;-81
2021/05/20 09:56:15;;;;;;;6.33;1.15;;;;;;;22.17;48.98;99434.11;1744825;79;21323;-86
2021/05/20 09:59:21;;;;;;;1.42;0.90;;;;;;;22.35;48.38;99434.16;1743877;79;21585;-81
2021/05/20 10:02:27;;;;;;;1.55;0.80;;;;;;;22.56;48.80;99426.67;1695089;82;21169;-82
2021/05/20 10:05:36;;;;;;;3.42;1.07;;;;;;;22.69;48.17;99431.15;1745238;79;21344;-82
2021/05/20 10:08:43;;;;;;;5.22;1.05;;;;;;;22.79;48.10;99421.13;1745146;79;21158;-82
2021/05/20 10:11:52;;;;;;;2.08;0.80;;;;;;;22.94;47.16;99414.17;1748355;81;21217;-82
2021/05/20 10:14:58;;;;;;;4.00;0.80;;;;;;;23.08;46.36;99422.26;1742502;81;21610;-82
2021/05/20 10:18:04;;;;;;;6.58;0.80;;;;;;;23.09;45.35;99425.88;1742039;79;21850;-82
2021/05/20 10:21:10;;;;;;;2.40;0.90;;;;;;;23.02;46.47;99414.19;1744895;81;21154;-82
2021/05/20 10:24:17;;;;;;;2.22;1.20;;;;;;;22.91;46.63;99421.70;1743635;79;21291;-81
2021/05/20 10:27:26;;;;;;;2.33;0.80;;;;;;;22.86;46.55;99411.91;1742172;81;21256;-80
2021/05/20 10:30:33;;;;;;;4.80;1.05;;;;;;;22.90;46.94;99420.86;1741873;79;21653;-82
2021/05/20 10:33:43;;;;;;;1.23;0.80;;;;;;;23.05;46.71;99436.75;1744311;79;21278;-88
2021/05/20 10:37:09;;;;;;;5.12;0.90;;;;;;;23.09;46.15;99428.67;1739921;79;22131;-88
2021/05/20 10:40:33;;;;;;;5.37;1.05;;;;;;;23.07;45.93;99428.95;1741925;79;21279;-86
2021/05/20 10:43:42;;;;;;;1.62;1.00;;;;;;;23.04;45.62;99421.70;1746348;79;21158;-87
2021/05/20 10:47:11;;;;;;;1.52;0.70;;;;;;;22.96;45.47;99428.70;1734519;79;22075;-87
2021/05/20 10:50:16;;;;;;;2.87;0.93;;;;;;;23.04;44.78;99426.72;1746457;79;21562;-87
2021/05/20 10:54:16;;;;;;;4.85;1.02;;;;;;;23.18;44.78;99418.05;1744136;79;21194;-86
2021/05/20 10:57:21;;;;;;;3.72;1.10;;;;;;;23.40;44.74;99428.08;1745714;79;21547;-87
2021/05/20 11:00:46;;;;;;;1.42;1.10;;;;;;;23.63;44.91;99434.45;1731336;81;21212;-86
2021/05/20 11:04:03;;;;;;;2.00;1.00;;;;;;;23.82;43.25;99429.67;1730854;81;21197;-86
2021/05/20 11:07:10;;;;;;;2.72;1.00;;;;;;;23.97;43.59;99420.66;1743654;79;21174;-84
2021/05/20 11:10:21;;;;;;;3.00;0.80;;;;;;;23.98;43.51;99419.53;1742907;79;21172;-84
2021/05/20 11:13:46;;;;;;;1.90;0.80;;;;;;;23.95;44.75;99420.69;1706319;83;21176;-88
2021/05/20 11:16:54;;;;;;;1.98;0.75;;;;;;;24.05;45.05;99416.45;1742865;81;22011;-85
2021/05/20 11:20:32;;;;;;;2.75;0.95;;;;;;;24.15;43.55;99406.61;1743350;79;21563;-82
2021/05/20 11:23:39;;;;;;;2.47;0.90;;;;;;;24.16;42.51;99412.47;1750519;81;21296;-84
2021/05/20 11:26:47;;;;;;;3.85;0.90;;;;;;;24.16;41.31;99409.67;1743498;79;21185;-83
2021/05/20 11:29:59;;;;;;;5.47;0.90;;;;;;;24.16;40.83;99408.28;1744358;80;21185;-82
2021/05/20 11:33:06;;;;;;;2.50;0.82;;;;;;;24.17;41.49;99411.34;1743098;81;21658;-82
2021/05/20 11:36:14;;;;;;;1.27;0.80;;;;;;;24.19;41.74;99402.12;1744611;81;21333;-83
2021/05/20 11:39:24;;;;;;;3.30;0.80;;;;;;;24.24;40.62;99412.44;1756447;80;21327;-83
2021/05/20 11:42:32;;;;;;;0.95;0.70;;;;;;;24.21;40.65;99423.61;1757765;80;21775;-83
2021/05/20 11:45:40;;;;;;;6.35;1.00;;;;;;;24.08;40.56;99417.25;1756921;80;21802;-83
2021/05/20 11:48:47;;;;;;;2.45;0.70;;;;;;;24.02;40.42;99412.82;1758657;79;21758;-81
2021/05/20 11:52:10;;;;;;;5.10;0.98;;;;;;;23.97;38.08;99410.89;1682169;83;21361;-80
2021/05/20 11:55:16;;;;;;;1.50;0.75;;;;;;;23.77;38.39;99411.55;1709996;82;21233;-82
2021/05/20 11:58:21;;;;;;;1.35;0.90;;;;;;;23.60;38.58;99417.42;1714107;81;21312;-82
2021/05/20 12:01:30;;;;;;;1.17;0.80;;;;;;;23.44;39.75;99420.82;1713915;82;21354;-82
2021/05/20 12:04:37;;;;;;;2.12;0.90;;;;;;;23.35;40.11;99428.09;1715217;81;21374;-82
2021/05/20 12:07:46;;;;;;;2.08;0.80;;;;;;;23.29;41.43;99423.61;1712570;81;21200;-83
2021/05/20 12:10:58;;;;;;;1.22;0.65;;;;;;;23.31;41.65;99427.81;1692496;82;21311;-81
2021/05/20 12:14:04;;;;;;;2.58;1.00;;;;;;;23.38;40.71;99424.19;1685339;82;21788;-81
2021/05/20 12:17:29;;;;;;;1.52;0.80;;;;;;;23.48;41.40;99423.33;1712777;81;21713;-89
2021/05/20 12:20:34;;;;;;;8.68;0.95;;;;;;;23.54;39.75;99426.38;1718236;81;21847;-86
2021/05/20 12:23:39;;;;;;;4.10;1.00;;;;;;;23.65;39.83;99422.45;1668704;82;21222;-87
2021/05/20 12:26:46;;;;;;;1.77;0.70;;;;;;;23.79;40.07;99410.69;1720242;82;21738;-87
2021/05/20 12:29:55;;;;;;;1.00;0.62;;;;;;;23.98;40.98;99415.91;1716595;82;21283;-86
2021/05/20 12:33:13;;;;;;;2.40;0.62;;;;;;;24.05;39.88;99411.42;1679739;82;21164;-86
2021/05/20 12:36:39;;;;;;;8.33;1.00;;;;;;;23.93;39.71;99413.97;1697935;83;21651;-87
2021/05/20 12:39:54;;;;;;;4.33;0.70;;;;;;;23.86;39.69;99409.84;1699271;82;21194;-87
2021/05/20 12:43:39;;;;;;;1.82;0.90;;;;;;;23.87;39.88;99408.70;1741799;81;21304;-87
2021/05/20 12:46:46;;;;;;;5.60;0.95;;;;;;;23.88;39.16;99407.02;1744557;81;21240;-87
2021/05/20 12:50:03;;;;;;;6.90;1.02;;;;;;;23.91;38.99;99400.87;1745093;81;21255;-85
2021/05/20 12:53:10;;;;;;;3.15;1.10;;;;;;;23.92;38.57;99398.34;1747156;79;21792;-84
2021/05/20 12:56:33;;;;;;;4.97;0.90;;;;;;;23.90;38.19;99395.02;1748599;79;21346;-84
2021/05/20 12:59:45;;;;;;;4.15;1.00;;;;;;;23.80;38.65;99393.64;1746844;79;21201;-84
2021/05/20 13:02:51;;;;;;;5.35;1.00;;;;;;;23.61;39.27;99396.19;1747315;81;21534;-84
2021/05/20 13:05:59;;;;;;;5.58;0.90;;;;;;;23.35;38.82;99389.86;1751415;81;21142;-84
2021/05/20 13:09:19;;;;;;;7.90;0.82;;;;;;;23.24;38.54;99395.73;1746710;79;21268;-84
2021/05/20 13:12:34;;;;;;;1.65;0.75;;;;;;;23.21;39.12;99392.40;1747790;81;21840;-84
2021/05/20 13:16:05;;;;;;;2.22;0.80;;;;;;;23.40;40.43;99393.20;1750163;81;21479;-84
2021/05/20 13:22:31;;;;;;;1.65;0.80;;;;;;;23.68;40.46;99386.17;1667507;84;21292;-84
2021/05/20 13:25:38;;;;;;;5.12;0.80;;;;;;;23.75;40.00;99392.83;1699586;83;21815;-84
2021/05/20 13:28:46;;;;;;;2.37;0.90;;;;;;;23.70;39.80;99388.94;1747658;81;21579;-84
2021/05/20 13:31:52;;;;;;;3.95;1.05;;;;;;;23.59;39.88;99383.09;1756167;81;21300;-84
2021/05/20 13:34:58;;;;;;;3.72;0.70;;;;;;;23.46;40.73;99385.08;1751161;81;21308;-84
2021/05/20 13:38:03;;;;;;;2.75;0.98;;;;;;;23.39;41.48;99376.19;1743072;81;21732;-84
2021/05/20 13:41:10;;;;;;;1.75;0.75;;;;;;;23.35;41.08;99375.08;1748511;81;21763;-84
2021/05/20 13:44:15;;;;;;;5.65;0.88;;;;;;;23.27;41.18;99368.67;1737412;81;21321;-84
2021/05/20 13:47:22;;;;;;;0.90;0.75;;;;;;;23.14;40.87;99375.10;1702090;84;21287;-84
2021/05/20 13:50:29;;;;;;;1.35;0.85;;;;;;;23.03;40.38;99372.06;1738066;82;21281;-84
2021/05/20 13:53:35;;;;;;;4.72;0.95;;;;;;;22.97;41.61;99369.02;1703737;84;21312;-84
2021/05/20 13:56:40;;;;;;;1.45;0.72;;;;;;;22.94;41.76;99370.40;1738936;82;21826;-84
2021/05/20 13:59:47;;;;;;;1.42;0.98;;;;;;;23.04;41.58;99375.13;1702974;84;21762;-84
2021/05/20 14:02:54;;;;;;;5.33;0.80;;;;;;;23.14;41.82;99375.10;1732125;81;21917;-84
2021/05/20 14:05:59;;;;;;;2.87;0.60;;;;;;;23.21;40.63;99373.44;1703453;84;21205;-84
2021/05/20 14:09:04;;;;;;;11.30;1.20;;;;;;;23.19;39.80;99363.93;1739004;82;21748;-84
2021/05/20 14:12:14;;;;;;;1.12;0.80;;;;;;;23.14;40.09;99367.30;1703774;84;21814;-84
2021/05/20 14:15:22;;;;;;;2.17;0.60;;;;;;;23.04;40.25;99375.69;1739630;82;21193;-84
2021/05/20 14:18:28;;;;;;;1.72;0.90;;;;;;;22.93;40.33;99383.23;1703782;84;21200;-84
2021/05/20 14:21:34;;;;;;;0.70;0.70;;;;;;;22.79;41.29;99383.48;1731422;82;21288;-84
2021/05/20 14:24:40;;;;;;;2.45;1.10;;;;;;;22.64;40.82;99375.97;1704105;84;21284;-84
2021/05/20 14:27:45;;;;;;;3.15;0.98;;;;;;;22.42;40.43;99380.39;1739628;82;21878;-84
2021/05/20 14:30:53;;;;;;;3.60;1.40;;;;;;;22.23;40.58;99377.30;1703339;84;21844;-84
2021/05/20 14:33:58;;;;;;;1.30;0.90;;;;;;;22.12;41.80;99379.23;1739560;82;21236;-84
2021/05/20 14:37:05;;;;;;;1.92;0.98;;;;;;;22.09;41.90;99378.91;1702556;84;21181;-84
2021/05/20 14:40:15;;;;;;;3.50;0.80;;;;;;;22.04;42.37;99365.80;1741749;81;21780;-84
2021/05/20 14:43:23;;;;;;;1.37;0.98;;;;;;;22.08;42.50;99369.72;1717235;83;21319;-84
2021/05/20 14:46:28;;;;;;;2.25;0.85;;;;;;;22.16;43.48;99366.44;1717435;83;21272;-84
2021/05/20 14:49:45;;;;;;;1.77;0.90;;;;;;;22.20;45.29;99359.18;1717074;83;21339;-84
2021/05/20 14:52:50;;;;;;;5.60;1.40;;;;;;;22.18;47.87;99355.84;1717562;83;21350;-84
2021/05/20 14:56:04;;;;;;;3.98;2.02;;;;;;;22.09;49.04;99353.29;1716930;83;21200;-84
2021/05/20 15:05:40;;;;;;;2.65;1.25;;;;;;;22.07;49.23;99363.88;1717522;83;21279;-84